Time;durP1;ratioP1;P1;durP2;ratioP2;P2;SDS_P1;SDS_P2;PMS_P1;PMS_P2;Temp;Humidity;BMP_temperature;BMP_pressure;BME280_temperature;BME280_humidity;BME280_pressure;Samples;Min_cycle;Max_cycle;Signal;HPM_P1;HPM_P2
2022/08/23 00:02:55;;;;;;;10.93;8.00;;;;;;;17.95;100.00;99517.59;6324061;28;20518;-72
2022/08/23 00:05:56;;;;;;;12.88;8.55;;;;;;;17.87;100.00;99510.47;6323904;28;20043;-72
2022/08/23 00:08:57;;;;;;;11.30;8.45;;;;;;;17.83;100.00;99513.53;6323799;28;20044;-72
2022/08/23 00:12:19;;;;;;;11.50;8.33;;;;;;;17.80;100.00;99512.00;6322536;28;20590;-72
2022/08/23 00:15:20;;;;;;;13.02;8.35;;;;;;;17.76;100.00;99509.84;6322501;28;20047;-73
2022/08/23 00:18:23;;;;;;;13.85;8.52;;;;;;;17.71;100.00;99505.84;6323504;28;20036;-73
2022/08/23 00:21:28;;;;;;;11.18;7.97;;;;;;;17.67;100.00;99507.13;6323808;28;20377;-72
2022/08/23 00:24:28;;;;;;;9.77;7.65;;;;;;;17.70;100.00;99511.28;6322358;28;20097;-73
2022/08/23 00:27:29;;;;;;;10.03;6.53;;;;;;;17.71;100.00;99513.78;6313322;28;20064;-72
2022/08/23 00:30:30;;;;;;;10.68;7.80;;;;;;;17.66;100.00;99513.38;6298164;28;20043;-73
2022/08/23 00:33:31;;;;;;;9.25;7.30;;;;;;;17.68;100.00;99514.06;6298166;28;20047;-72
2022/08/23 00:36:32;;;;;;;11.53;7.93;;;;;;;17.65;100.00;99518.84;6298494;28;20041;-73
2022/08/23 00:39:33;;;;;;;10.70;7.20;;;;;;;17.65;100.00;99517.00;6296636;28;20147;-74
2022/08/23 00:49:43;;;;;;;13.20;8.88;;;;;;;17.72;100.00;99522.50;6296184;28;20110;-73
2022/08/23 00:53:11;;;;;;;9.70;7.78;;;;;;;17.68;100.00;99521.97;6279674;28;20142;-73
2022/08/23 00:56:16;;;;;;;9.32;8.30;;;;;;;17.65;100.00;99522.28;6296428;28;20068;-73
2022/08/23 00:59:17;;;;;;;11.27;8.05;;;;;;;17.66;100.00;99525.75;6330252;28;20074;-73
2022/08/23 01:02:18;;;;;;;10.63;8.17;;;;;;;17.62;100.00;99522.56;6296246;28;20121;-72
2022/08/23 01:05:24;;;;;;;14.23;8.20;;;;;;;17.64;100.00;99517.97;6297297;28;20053;-73
2022/08/23 01:08:28;;;;;;;12.60;8.45;;;;;;;17.57;100.00;99514.31;6297191;28;20040;-72
2022/08/23 01:11:35;;;;;;;9.38;7.90;;;;;;;17.54;100.00;99519.88;6297276;28;20484;-73
2022/08/23 01:15:03;;;;;;;10.52;7.80;;;;;;;17.53;100.00;99518.22;6295842;28;20094;-73
2022/08/23 01:18:11;;;;;;;11.40;7.75;;;;;;;17.52;100.00;99517.41;6291348;28;20058;-72
2022/08/23 01:21:26;;;;;;;14.02;7.82;;;;;;;17.55;100.00;99515.44;6296873;28;20036;-73
2022/08/23 01:24:29;;;;;;;13.10;8.40;;;;;;;17.50;100.00;99506.19;6297281;28;20051;-73
2022/08/23 01:27:36;;;;;;;13.15;8.13;;;;;;;17.50;100.00;99498.28;6296656;28;20515;-73
2022/08/23 01:30:41;;;;;;;10.23;7.97;;;;;;;17.50;100.00;99500.91;6312335;28;20045;-73
2022/08/23 01:33:45;;;;;;;11.15;8.52;;;;;;;17.50;100.00;99505.31;6278736;28;20475;-73
2022/08/23 01:36:47;;;;;;;10.82;7.82;;;;;;;17.48;100.00;99494.09;6296561;28;20041;-73
2022/08/23 01:39:47;;;;;;;14.27;8.83;;;;;;;17.52;100.00;99501.59;6296458;28;20264;-73
2022/08/23 01:42:48;;;;;;;12.70;8.93;;;;;;;17.50;100.00;99486.88;6295317;28;20315;-73
2022/08/23 01:45:50;;;;;;;9.93;7.60;;;;;;;17.51;100.00;99494.63;6295285;28;20072;-73
2022/08/23 01:48:54;;;;;;;12.10;7.85;;;;;;;17.46;100.00;99490.78;6294919;28;20067;-73
2022/08/23 01:51:54;;;;;;;10.45;7.90;;;;;;;17.47;100.00;99492.47;6295110;28;20041;-73
2022/08/23 01:54:56;;;;;;;12.23;7.90;;;;;;;17.46;100.00;99488.16;6278533;28;20059;-73
2022/08/23 01:58:00;;;;;;;15.33;10.00;;;;;;;17.44;100.00;99495.38;6295051;28;20040;-72
2022/08/23 02:01:03;;;;;;;11.80;8.75;;;;;;;17.43;100.00;99494.56;6298357;28;20048;-73
2022/08/23 02:04:04;;;;;;;12.27;9.52;;;;;;;17.40;100.00;99489.59;6319312;28;20445;-72
2022/08/23 02:07:05;;;;;;;13.55;9.18;;;;;;;17.38;100.00;99490.72;6305028;28;20044;-73
2022/08/23 02:10:07;;;;;;;21.85;9.25;;;;;;;17.33;100.00;99486.72;6318865;28;20168;-73
2022/08/23 02:13:08;;;;;;;12.23;9.05;;;;;;;17.32;100.00;99489.53;6321033;28;20047;-72
2022/08/23 02:16:08;;;;;;;10.63;8.75;;;;;;;17.36;100.00;99490.88;6322198;28;20075;-73
2022/08/23 02:19:12;;;;;;;11.20;8.50;;;;;;;17.37;100.00;99497.81;6321979;28;20044;-73
2022/08/23 02:22:13;;;;;;;11.80;8.63;;;;;;;17.35;100.00;99509.50;6321698;28;20044;-72
2022/08/23 02:25:14;;;;;;;13.43;8.05;;;;;;;17.31;100.00;99515.03;6319712;28;20044;-73
2022/08/23 02:28:14;;;;;;;11.35;8.70;;;;;;;17.32;100.00;99519.34;6342405;27;20079;-73
2022/08/23 02:31:15;;;;;;;12.27;8.50;;;;;;;17.28;100.00;99515.38;6296702;28;20040;-73
2022/08/23 02:34:17;;;;;;;10.45;8.20;;;;;;;17.33;100.00;99523.63;6297142;28;20048;-73
2022/08/23 02:37:18;;;;;;;;;;;;;;;17.32;100.00;99522.00;6297163;28;20042;-73
2022/08/23 02:40:19;;;;;;;12.93;8.30;;;;;;;17.31;100.00;99514.22;6295189;28;20276;-73
2022/08/23 02:43:19;;;;;;;12.98;8.07;;;;;;;17.29;100.00;99521.44;6296730;28;20048;-73
2022/08/23 02:46:21;;;;;;;11.15;7.68;;;;;;;17.28;100.00;99523.28;6329081;28;20409;-73
2022/08/23 02:49:22;;;;;;;10.95;7.88;;;;;;;17.31;100.00;99528.22;6296521;28;20075;-73
2022/08/23 02:52:23;;;;;;;9.98;8.30;;;;;;;17.29;100.00;99529.38;6296526;28;20044;-73
2022/08/23 02:55:24;;;;;;;11.45;9.15;;;;;;;17.21;100.00;99531.91;6295042;28;20131;-73
2022/08/23 02:58:25;;;;;;;11.25;8.00;;;;;;;17.20;100.00;99532.91;6295247;28;20059;-73
2022/08/23 03:01:34;;;;;;;11.23;8.07;;;;;;;17.29;100.00;99550.47;6294822;28;20377;-73
2022/08/23 03:04:35;;;;;;;12.85;8.35;;;;;;;17.25;100.00;99547.28;6296065;28;20411;-73
2022/08/23 03:07:37;;;;;;;10.48;8.00;;;;;;;17.21;100.00;99543.28;6307713;28;20073;-73
2022/08/23 03:10:42;;;;;;;10.73;8.05;;;;;;;17.21;100.00;99545.09;6321426;28;20043;-73
2022/08/23 03:13:44;;;;;;;12.48;8.63;;;;;;;17.24;100.00;99558.00;6320251;28;20380;-74
2022/08/23 03:16:45;;;;;;;10.77;8.32;;;;;;;17.21;100.00;99559.09;6321450;28;20044;-73
2022/08/23 03:19:47;;;;;;;14.07;9.45;;;;;;;17.19;100.00;99570.78;6320159;28;20451;-73
2022/08/23 03:22:47;;;;;;;13.00;9.90;;;;;;;17.16;100.00;99574.53;6321346;28;20039;-73
2022/08/23 03:25:48;;;;;;;13.23;9.77;;;;;;;17.14;100.00;99562.50;6320130;28;20055;-73
2022/08/23 03:28:49;;;;;;;12.48;9.52;;;;;;;17.12;100.00;99570.53;6321202;28;20044;-73
2022/08/23 03:31:50;;;;;;;13.20;9.95;;;;;;;17.12;100.00;99571.38;6319994;28;20043;-73
2022/08/23 03:34:52;;;;;;;14.05;9.57;;;;;;;17.10;100.00;99586.50;6321493;28;20395;-73
2022/08/23 03:37:53;;;;;;;13.23;9.88;;;;;;;17.15;100.00;99593.13;6325727;28;20051;-73
2022/08/23 03:40:54;;;;;;;12.38;10.20;;;;;;;17.18;100.00;99591.03;6320558;28;20041;-74
2022/08/23 03:43:55;;;;;;;12.43;9.43;;;;;;;17.16;100.00;99594.81;6299284;28;20068;-73
2022/08/23 03:46:55;;;;;;;13.13;9.65;;;;;;;17.24;100.00;99589.63;6282451;28;20049;-73
2022/08/23 03:49:57;;;;;;;16.27;10.23;;;;;;;17.28;100.00;99596.28;6299159;28;20044;-73
2022/08/23 03:52:58;;;;;;;12.77;10.00;;;;;;;17.35;100.00;99597.31;6332686;28;20053;-73
2022/08/23 03:55:58;;;;;;;14.30;10.45;;;;;;;17.38;100.00;99601.47;6298841;28;20135;-72
2022/08/23 03:59:12;;;;;;;15.70;11.55;;;;;;;17.41;100.00;99609.09;6298689;28;20084;-73
2022/08/23 04:02:13;;;;;;;14.10;10.85;;;;;;;17.38;100.00;99607.59;6300013;28;20089;-73
2022/08/23 04:05:14;;;;;;;16.67;11.80;;;;;;;17.33;100.00;99615.91;6299873;28;20040;-73
2022/08/23 04:08:15;;;;;;;35.13;10.85;;;;;;;17.35;100.00;99599.13;6299944;28;20454;-73
2022/08/23 04:11:19;;;;;;;15.65;12.00;;;;;;;17.33;100.00;99613.28;6299806;28;20127;-73
2022/08/23 04:14:20;;;;;;;16.88;10.73;;;;;;;17.42;100.00;99616.88;6299074;28;20527;-72
2022/08/23 04:17:21;;;;;;;16.63;11.65;;;;;;;17.46;100.00;99626.13;6297438;28;20045;-73
2022/08/23 04:20:21;;;;;;;61.65;11.90;;;;;;;17.52;100.00;99620.28;6298176;28;20415;-74
2022/08/23 04:23:23;;;;;;;94.20;12.23;;;;;;;17.53;100.00;99624.56;6298347;28;20041;-73
2022/08/23 04:26:24;;;;;;;120.70;11.93;;;;;;;17.52;100.00;99617.63;6299272;28;20122;-73
2022/08/23 04:29:25;;;;;;;59.97;11.85;;;;;;;17.55;100.00;99626.22;6281402;28;20425;-73
2022/08/23 04:32:26;;;;;;;22.02;12.05;;;;;;;17.62;100.00;99622.00;6299105;28;20544;-73
2022/08/23 04:35:29;;;;;;;78.03;11.98;;;;;;;17.67;100.00;99628.50;6306917;28;20094;-73
2022/08/23 04:38:30;;;;;;;87.18;13.95;;;;;;;17.49;100.00;99625.00;6321803;28;20504;-73
2022/08/23 04:44:50;;;;;;;52.58;10.57;;;;;;;17.60;100.00;99627.41;6297885;28;20044;-73
2022/08/23 04:47:51;;;;;;;72.37;10.33;;;;;;;17.49;100.00;99625.00;6308753;28;20052;-73
2022/08/23 04:50:52;;;;;;;64.47;9.98;;;;;;;17.65;100.00;99619.91;6303727;28;20532;-74
2022/08/23 04:53:55;;;;;;;60.13;10.75;;;;;;;17.57;100.00;99625.09;6310858;28;20040;-74
2022/08/23 04:56:56;;;;;;;57.15;10.45;;;;;;;17.70;100.00;99633.47;6321680;28;20040;-74
2022/08/23 04:59:57;;;;;;;73.07;12.20;;;;;;;17.78;100.00;99630.06;6321492;28;20040;-74
2022/08/23 05:02:58;;;;;;;156.95;14.80;;;;;;;17.75;100.00;99638.31;6305097;28;20040;-74
2022/08/23 05:06:00;;;;;;;234.43;16.17;;;;;;;17.91;100.00;99630.56;6343165;27;20048;-74
2022/08/23 05:09:00;;;;;;;251.00;13.85;;;;;;;18.02;100.00;99641.88;6322484;28;20044;-73
2022/08/23 05:12:01;;;;;;;157.50;12.32;;;;;;;18.05;100.00;99638.94;6316119;28;20047;-74
2022/08/23 05:15:03;;;;;;;203.77;13.00;;;;;;;18.10;100.00;99640.13;6321321;28;20504;-74
2022/08/23 05:18:04;;;;;;;216.98;12.00;;;;;;;18.04;100.00;99635.47;6288607;28;20140;-73
2022/08/23 05:21:05;;;;;;;85.43;11.07;;;;;;;18.11;100.00;99631.22;6295951;28;20043;-74
2022/08/23 05:24:06;;;;;;;112.93;11.60;;;;;;;18.23;100.00;99637.09;6297208;28;20051;-74
2022/08/23 05:27:09;;;;;;;107.50;11.45;;;;;;;18.39;100.00;99640.84;6295694;28;20056;-74
2022/08/23 05:30:11;;;;;;;215.88;12.38;;;;;;;18.40;100.00;99645.97;6295715;28;20434;-74
2022/08/23 05:33:11;;;;;;;172.50;12.63;;;;;;;18.56;100.00;99652.38;6302810;28;20056;-74
2022/08/23 05:36:33;;;;;;;87.25;11.68;;;;;;;18.69;100.00;99653.59;6316142;28;20051;-74
2022/08/23 05:39:53;;;;;;;56.20;11.57;;;;;;;18.89;100.00;99656.06;6307968;28;20052;-74
2022/08/23 05:43:14;;;;;;;45.95;12.88;;;;;;;19.01;100.00;99649.53;6304851;28;20125;-74
2022/08/23 05:46:35;;;;;;;20.83;13.52;;;;;;;19.33;100.00;99659.44;6298134;28;20056;-74
2022/08/23 05:49:56;;;;;;;58.42;14.00;;;;;;;19.56;100.00;99660.63;6298098;28;20080;-74
2022/08/23 05:53:17;;;;;;;32.97;14.85;;;;;;;19.46;100.00;99658.16;6297728;28;20056;-73
2022/08/23 05:56:41;;;;;;;21.13;14.40;;;;;;;19.68;100.00;99651.41;6296885;28;20561;-73
2022/08/23 06:00:11;;;;;;;38.65;16.33;;;;;;;19.81;100.00;99649.16;6314652;28;20060;-74
2022/08/23 06:03:31;;;;;;;79.03;17.92;;;;;;;19.78;100.00;99656.59;6305946;28;20048;-74
2022/08/23 06:06:55;;;;;;;31.40;16.83;;;;;;;19.94;100.00;99656.63;6297220;28;20041;-74
2022/08/23 06:10:16;;;;;;;39.08;17.38;;;;;;;20.08;100.00;99658.63;6316305;28;20094;-75
2022/08/23 06:13:46;;;;;;;30.63;17.77;;;;;;;20.15;100.00;99661.44;6317529;28;20064;-74
2022/08/23 06:17:07;;;;;;;79.75;15.25;;;;;;;20.01;100.00;99670.84;6321359;28;20040;-74
2022/08/23 06:20:09;;;;;;;21.03;15.13;;;;;;;20.11;100.00;99671.50;6304191;28;20052;-74
2022/08/23 06:23:09;;;;;;;42.90;15.73;;;;;;;20.22;100.00;99659.78;6321088;28;20782;-74
2022/08/23 06:26:19;;;;;;;25.03;16.33;;;;;;;20.33;100.00;99662.09;6321107;28;20055;-75
2022/08/23 06:29:23;;;;;;;22.17;16.25;;;;;;;20.35;100.00;99672.53;6322220;28;20063;-74
2022/08/23 06:32:24;;;;;;;19.95;16.10;;;;;;;20.36;100.00;99676.00;6321908;28;20040;-74
2022/08/23 06:35:25;;;;;;;22.70;16.40;;;;;;;20.30;100.00;99680.97;6320953;28;20075;-74
2022/08/23 06:38:26;;;;;;;25.83;14.43;;;;;;;20.11;100.00;99674.16;6321064;28;20160;-74
2022/08/23 06:41:27;;;;;;;25.30;15.93;;;;;;;20.09;100.00;99678.78;6302741;28;20144;-74
2022/08/23 06:44:29;;;;;;;26.20;15.07;;;;;;;20.33;100.00;99683.28;6318653;28;20403;-74
2022/08/23 06:47:30;;;;;;;23.70;14.98;;;;;;;20.32;100.00;99679.00;6320090;28;20044;-73
2022/08/23 06:50:31;;;;;;;21.90;15.10;;;;;;;20.36;100.00;99676.00;6321882;28;20483;-73
2022/08/23 06:53:32;;;;;;;20.90;14.63;;;;;;;20.55;100.00;99683.63;6321754;28;20102;-74
2022/08/23 06:56:34;;;;;;;18.30;13.97;;;;;;;20.61;100.00;99679.47;6303636;28;20109;-74
2022/08/23 06:59:37;;;;;;;27.40;14.43;;;;;;;20.64;100.00;99676.50;6303452;28;20059;-73
2022/08/23 07:02:37;;;;;;;20.52;14.60;;;;;;;20.67;100.00;99681.47;6320699;28;20036;-74
2022/08/23 07:05:41;;;;;;;21.80;14.07;;;;;;;20.89;100.00;99677.28;6321770;28;20123;-74
2022/08/23 07:08:41;;;;;;;19.50;14.07;;;;;;;20.97;100.00;99681.75;6321864;28;20068;-74
2022/08/23 07:11:42;;;;;;;18.70;14.07;;;;;;;20.63;100.00;99675.69;6359065;27;20415;-74
2022/08/23 07:14:43;;;;;;;23.07;13.80;;;;;;;20.92;100.00;99684.91;6359050;27;20074;-74
2022/08/23 07:17:44;;;;;;;24.40;15.13;;;;;;;21.06;100.00;99680.72;6325021;28;20083;-73
2022/08/23 07:20:45;;;;;;;17.40;13.40;;;;;;;21.28;100.00;99690.59;6307877;28;20076;-73
2022/08/23 07:23:48;;;;;;;17.07;13.00;;;;;;;21.19;100.00;99696.09;6334544;28;20054;-73
2022/08/23 07:26:51;;;;;;;17.98;12.85;;;;;;;21.01;100.00;99696.31;6300585;28;20462;-73
2022/08/23 07:29:51;;;;;;;18.90;13.68;;;;;;;21.16;100.00;99699.09;6299262;28;20060;-73
2022/08/23 07:32:52;;;;;;;17.83;13.10;;;;;;;21.33;100.00;99701.53;6299796;28;20059;-73
2022/08/23 07:35:53;;;;;;;19.13;13.37;;;;;;;21.42;100.00;99706.81;6299289;28;20452;-73
2022/08/23 07:38:56;;;;;;;19.27;14.37;;;;;;;21.49;100.00;99702.47;6299035;28;20036;-74
2022/08/23 07:42:03;;;;;;;18.98;13.27;;;;;;;21.67;100.00;99697.75;6299226;28;20041;-73
2022/08/23 07:45:06;;;;;;;18.95;14.55;;;;;;;21.65;100.00;99704.22;6322972;28;20047;-73
2022/08/23 07:48:08;;;;;;;20.40;13.73;;;;;;;21.37;100.00;99706.47;6325687;28;20047;-73
2022/08/23 07:51:12;;;;;;;17.55;13.02;;;;;;;22.04;100.00;99717.44;6324333;28;20052;-73
2022/08/23 07:54:14;;;;;;;17.92;13.60;;;;;;;22.09;100.00;99706.28;6297698;28;20488;-73
2022/08/23 07:57:16;;;;;;;16.95;12.43;;;;;;;22.44;100.00;99709.38;6287450;28;20113;-73
2022/08/23 08:00:17;;;;;;;15.15;12.80;;;;;;;22.29;100.00;99706.69;6298674;28;20064;-73
2022/08/23 08:03:18;;;;;;;18.80;13.50;;;;;;;22.17;100.00;99705.41;6322137;28;20403;-74
2022/08/23 08:06:31;;;;;;;16.90;12.25;;;;;;;22.61;100.00;99708.25;6306230;28;20047;-74
2022/08/23 08:09:34;;;;;;;13.63;12.18;;;;;;;22.81;100.00;99707.72;6306685;28;20091;-75
2022/08/23 08:12:35;;;;;;;18.17;12.40;;;;;;;23.10;100.00;99706.94;6299961;28;20055;-74
2022/08/23 08:15:41;;;;;;;17.98;12.88;;;;;;;22.96;100.00;99711.22;6322450;28;20048;-74
2022/08/23 08:18:41;;;;;;;18.05;11.68;;;;;;;22.46;100.00;99704.69;6323634;28;20506;-73
2022/08/23 08:21:44;;;;;;;15.63;12.07;;;;;;;22.40;100.00;99708.06;6305187;28;20082;-75
2022/08/23 08:24:47;;;;;;;13.85;11.82;;;;;;;22.67;100.00;99712.84;6321946;28;20044;-73
2022/08/23 08:27:48;;;;;;;14.27;11.77;;;;;;;22.71;100.00;99716.78;6321574;28;20054;-72
2022/08/23 08:30:49;;;;;;;17.07;13.23;;;;;;;22.66;100.00;99713.84;6322169;28;20052;-73
2022/08/23 08:33:50;;;;;;;14.63;12.20;;;;;;;23.02;100.00;99717.66;6311722;28;20052;-75
2022/08/23 08:36:53;;;;;;;13.88;11.70;;;;;;;23.38;100.00;99725.75;6312657;28;20567;-73
2022/08/23 08:39:54;;;;;;;17.27;12.73;;;;;;;23.30;100.00;99734.66;6301212;28;20408;-74
2022/08/23 08:43:14;;;;;;;17.57;12.40;;;;;;;23.78;100.00;99742.25;6303073;28;20044;-71
2022/08/23 08:46:44;;;;;;;14.18;11.48;;;;;;;23.99;100.00;99736.16;6321978;28;20044;-75
2022/08/23 08:49:59;;;;;;;17.92;11.85;;;;;;;23.73;100.00;99740.13;6322056;28;20043;-75
2022/08/23 08:53:10;;;;;;;17.63;12.75;;;;;;;23.54;100.00;99741.53;6321353;28;20138;-74
2022/08/23 08:56:23;;;;;;;21.70;12.13;;;;;;;23.70;100.00;99743.16;6321758;28;20138;-74
2022/08/23 08:59:36;;;;;;;14.73;11.10;;;;;;;24.23;100.00;99748.25;6317892;28;20442;-75
2022/08/23 09:02:40;;;;;;;15.60;11.85;;;;;;;24.43;100.00;99734.31;6310669;28;20052;-72
2022/08/23 09:05:56;;;;;;;14.75;11.73;;;;;;;24.97;100.00;99747.06;6296441;28;20559;-75
2022/08/23 09:09:22;;;;;;;14.27;12.32;;;;;;;24.53;100.00;99746.31;6306102;28;20443;-74
2022/08/23 09:12:45;;;;;;;16.42;13.73;;;;;;;24.70;100.00;99741.53;6317818;28;20399;-74
2022/08/23 09:16:16;;;;;;;14.75;11.98;;;;;;;25.12;100.00;99733.59;6329595;28;20079;-75
2022/08/23 09:19:18;;;;;;;16.17;12.43;;;;;;;24.85;100.00;99733.47;6296477;28;20060;-75
2022/08/23 09:22:36;;;;;;;14.18;11.52;;;;;;;25.17;100.00;99739.19;6296188;28;20408;-74
2022/08/23 09:25:37;;;;;;;12.85;11.25;;;;;;;25.02;100.00;99742.00;6296195;28;20424;-75
2022/08/23 09:28:40;;;;;;;18.45;14.27;;;;;;;25.32;100.00;99739.91;6279229;28;20061;-75
2022/08/23 09:31:46;;;;;;;17.00;12.52;;;;;;;25.52;100.00;99734.69;6297978;28;20056;-73
2022/08/23 09:34:46;;;;;;;17.35;13.75;;;;;;;25.28;100.00;99736.00;6342835;27;20048;-72
2022/08/23 09:38:21;;;;;;;17.03;15.07;;;;;;;25.61;100.00;99729.16;6314632;28;20048;-73
2022/08/23 09:41:27;;;;;;;18.48;13.57;;;;;;;25.88;96.75;99741.63;6315136;28;20056;-73
2022/08/23 09:44:33;;;;;;;16.00;13.18;;;;;;;26.28;95.97;99743.59;6320316;28;20048;-74
2022/08/23 09:47:40;;;;;;;15.65;13.25;;;;;;;26.13;91.07;99738.41;6321555;28;20048;-75
2022/08/23 09:50:49;;;;;;;13.95;10.27;;;;;;;26.38;90.43;99751.19;6321456;28;20052;-75
2022/08/23 09:54:03;;;;;;;14.35;11.45;;;;;;;26.71;85.76;99746.72;6322046;28;20044;-74
2022/08/23 09:57:09;;;;;;;13.82;9.80;;;;;;;25.82;87.20;99741.56;6320932;28;20126;-75
2022/08/23 10:00:14;;;;;;;13.32;11.30;;;;;;;25.94;86.07;99753.34;6320920;28;20043;-74
2022/08/23 10:03:27;;;;;;;7.85;7.05;;;;;;;26.07;81.25;99750.75;6321772;28;20409;-74
2022/08/23 10:06:30;;;;;;;12.30;9.30;;;;;;;26.63;82.96;99740.75;6320810;28;20075;-75
2022/08/23 10:09:34;;;;;;;12.80;10.25;;;;;;;27.02;78.52;99744.44;6322474;28;20054;-75
2022/08/23 10:12:35;;;;;;;13.82;8.88;;;;;;;26.76;77.91;99742.59;6321401;28;20119;-73
2022/08/23 10:15:58;;;;;;;15.80;11.48;;;;;;;26.15;84.10;99749.75;6321943;28;20128;-74
2022/08/23 10:19:14;;;;;;;10.95;9.27;;;;;;;26.25;86.83;99752.00;6321860;28;20380;-74
2022/08/23 10:22:37;;;;;;;13.45;10.73;;;;;;;25.69;87.41;99750.38;6321493;28;20396;-75
2022/08/23 10:25:49;;;;;;;8.40;6.10;;;;;;;25.90;78.95;99752.97;6321891;28;20040;-73
2022/08/23 10:32:42;;;;;;;4.20;3.78;;;;;;;27.46;68.94;99750.94;6346027;28;20102;-73
2022/08/23 10:35:51;;;;;;;10.73;7.78;;;;;;;27.58;73.18;99749.25;6328742;28;20404;-73
2022/08/23 10:38:58;;;;;;;9.90;7.50;;;;;;;27.38;71.75;99748.50;6334499;28;20361;-75
2022/08/23 10:42:30;;;;;;;8.27;6.32;;;;;;;27.51;69.31;99743.91;6309549;28;20458;-74
2022/08/23 10:45:37;;;;;;;11.20;7.60;;;;;;;28.14;68.72;99737.84;6303006;28;20045;-75
2022/08/23 10:49:00;;;;;;;9.02;6.82;;;;;;;28.75;63.87;99740.13;6299602;28;20048;-75
2022/08/23 10:52:03;;;;;;;17.15;7.15;;;;;;;28.74;63.86;99736.59;6316542;28;20052;-75
2022/08/23 10:55:33;;;;;;;8.63;5.72;;;;;;;27.48;70.26;99730.94;6289714;28;20048;-75
2022/08/23 10:58:48;;;;;;;12.82;8.10;;;;;;;28.22;70.56;99723.34;6316261;28;20094;-75
2022/08/23 11:01:59;;;;;;;9.85;6.85;;;;;;;28.43;68.46;99724.84;6310340;28;20243;-73
2022/08/23 11:05:02;;;;;;;7.75;6.57;;;;;;;27.50;68.97;99726.19;6325772;28;20488;-73
2022/08/23 11:08:11;;;;;;;8.43;5.57;;;;;;;27.63;69.48;99722.63;6322848;28;20108;-73
2022/08/23 11:11:36;;;;;;;7.20;6.13;;;;;;;27.89;66.27;99721.69;6325125;28;20040;-75
2022/08/23 11:14:37;;;;;;;9.68;6.47;;;;;;;27.68;65.73;99712.09;6306254;28;20044;-75
2022/08/23 11:17:43;;;;;;;10.98;5.90;;;;;;;28.48;64.43;99716.16;6325526;28;20040;-73
2022/08/23 11:20:50;;;;;;;7.18;5.80;;;;;;;28.00;67.79;99709.47;6298991;28;20044;-73
2022/08/23 11:23:52;;;;;;;9.30;6.13;;;;;;;27.90;65.90;99709.09;6315844;28;20129;-73
2022/08/23 11:26:54;;;;;;;7.35;5.80;;;;;;;28.50;65.53;99712.22;6311434;28;20374;-74
2022/08/23 11:29:54;;;;;;;;;;;;;;;27.56;66.77;99712.97;6307789;28;20543;-73
2022/08/23 11:33:14;;;;;;;7.57;6.77;;;;;;;27.33;69.04;99707.09;6325438;28;19920;-75
2022/08/23 11:36:20;;;;;;;8.95;5.80;;;;;;;27.23;69.35;99708.56;6323651;28;20575;-73
2022/08/23 11:39:23;;;;;;;7.05;5.53;;;;;;;27.65;66.90;99706.31;6324018;28;20503;-73
2022/08/23 11:42:33;;;;;;;6.65;5.53;;;;;;;27.63;68.49;99714.56;6323709;28;20430;-73
2022/08/23 11:45:36;;;;;;;8.60;5.53;;;;;;;27.99;65.69;99710.50;6320775;28;20051;-75
2022/08/23 11:48:41;;;;;;;12.45;6.10;;;;;;;28.56;62.91;99710.53;6323790;28;20487;-75
2022/08/23 11:52:12;;;;;;;9.25;5.78;;;;;;;28.46;62.98;99715.56;6288441;28;20503;-74
2022/08/23 11:55:52;;;;;;;7.43;5.10;;;;;;;28.82;62.82;99711.31;6299671;28;20072;-75
2022/08/23 11:58:59;;;;;;;5.88;5.07;;;;;;;28.17;65.38;99714.31;6247842;28;20474;-75
2022/08/23 12:02:32;;;;;;;7.20;5.20;;;;;;;27.80;66.86;99717.59;6322678;28;20516;-73
2022/08/23 12:05:32;;;;;;;7.15;5.10;;;;;;;28.32;67.64;99721.00;6288311;28;20124;-74
2022/08/23 12:09:28;;;;;;;6.70;4.90;;;;;;;28.93;60.71;99722.16;6315604;28;20487;-75
2022/08/23 12:12:33;;;;;;;6.18;4.82;;;;;;;29.26;60.57;99712.13;6297408;28;20063;-74
2022/08/23 12:16:11;;;;;;;6.18;4.55;;;;;;;28.73;60.82;99708.94;6299472;28;20484;-74
2022/08/23 12:19:33;;;;;;;8.20;5.25;;;;;;;27.67;62.69;99714.97;6316500;28;20105;-77
2022/08/23 12:23:13;;;;;;;10.52;4.60;;;;;;;27.36;65.62;99705.00;6324899;28;20518;-72
2022/08/23 12:26:52;;;;;;;8.60;4.60;;;;;;;28.33;68.72;99706.56;6324595;28;20415;-73
2022/08/23 12:30:07;;;;;;;8.73;4.82;;;;;;;28.70;65.04;99705.84;6324346;28;20109;-74
2022/08/23 12:33:44;;;;;;;6.18;5.13;;;;;;;27.79;63.49;99709.78;6299529;28;20544;-74
2022/08/23 12:37:14;;;;;;;7.03;5.00;;;;;;;27.69;64.60;99707.53;6267138;28;20548;-75
2022/08/23 12:40:26;;;;;;;6.50;4.70;;;;;;;27.87;65.62;99704.19;6314644;28;20143;-73
2022/08/23 12:43:31;;;;;;;6.47;5.15;;;;;;;27.80;65.10;99703.34;6295973;28;20408;-75
2022/08/23 12:46:41;;;;;;;5.38;4.88;;;;;;;28.32;62.56;99706.78;6322702;28;20545;-75
2022/08/23 12:49:54;;;;;;;6.57;5.10;;;;;;;27.89;64.51;99708.28;6324392;28;20456;-75
2022/08/23 12:52:58;;;;;;;6.28;4.78;;;;;;;28.27;62.64;99711.97;6322220;28;20040;-75
2022/08/23 12:56:15;;;;;;;6.47;5.53;;;;;;;28.26;60.78;99707.66;6321781;28;20075;-75
2022/08/23 12:59:35;;;;;;;5.50;4.75;;;;;;;28.26;68.41;99707.66;6322405;28;20036;-75
2022/08/23 13:02:37;;;;;;;6.53;5.60;;;;;;;28.18;63.63;99705.22;6322488;28;20037;-75
2022/08/23 13:06:03;;;;;;;6.68;5.20;;;;;;;28.19;65.38;99702.34;6322147;28;20556;-74
2022/08/23 13:09:11;;;;;;;7.45;5.03;;;;;;;28.38;62.38;99695.16;6311999;28;20056;-76
2022/08/23 13:12:14;;;;;;;6.25;5.15;;;;;;;28.38;64.38;99702.41;6321053;28;20052;-74
2022/08/23 13:15:40;;;;;;;6.68;5.07;;;;;;;28.33;65.00;99697.66;6320709;28;20063;-75
2022/08/23 13:18:44;;;;;;;6.32;4.97;;;;;;;28.09;63.36;99689.41;6337828;28;20161;-75
2022/08/23 13:21:45;;;;;;;7.10;5.28;;;;;;;27.82;66.19;99693.25;6321995;28;20036;-75
2022/08/23 13:25:06;;;;;;;6.38;5.28;;;;;;;27.97;64.19;99695.69;6317618;28;20047;-76
2022/08/23 13:28:24;;;;;;;8.23;5.35;;;;;;;28.11;64.09;99690.00;6296477;28;20052;-73
2022/08/23 13:31:25;;;;;;;7.55;5.45;;;;;;;27.79;63.53;99683.78;6295621;28;20501;-76
2022/08/23 13:34:39;;;;;;;8.65;5.40;;;;;;;28.08;64.29;99685.06;6315039;28;20135;-76
2022/08/23 13:37:47;;;;;;;5.68;5.00;;;;;;;28.07;64.25;99679.94;6321536;28;20040;-74
2022/08/23 13:41:02;;;;;;;7.35;5.38;;;;;;;27.69;62.44;99683.44;6321499;28;20553;-74
2022/08/23 13:44:07;;;;;;;7.07;4.65;;;;;;;27.41;66.06;99684.59;6308141;28;20119;-75
2022/08/23 13:47:21;;;;;;;7.65;5.30;;;;;;;27.61;64.20;99681.00;6299103;28;20400;-74
2022/08/23 13:50:27;;;;;;;8.15;5.13;;;;;;;27.77;62.92;99671.63;6303989;28;20052;-76
2022/08/23 13:53:28;;;;;;;6.65;5.55;;;;;;;27.80;63.25;99669.34;6303922;28;20193;-73
2022/08/23 13:56:33;;;;;;;8.27;6.20;;;;;;;27.91;64.83;99665.19;6322181;28;20452;-73
2022/08/23 13:59:38;;;;;;;6.88;5.93;;;;;;;27.58;62.74;99660.81;6310145;28;20082;-75
2022/08/23 14:02:39;;;;;;;8.20;5.10;;;;;;;27.71;64.42;99662.59;6295841;28;20048;-75
2022/08/23 14:05:42;;;;;;;7.97;5.20;;;;;;;27.80;61.88;99655.13;6295612;28;20127;-73
2022/08/23 14:08:45;;;;;;;6.55;4.53;;;;;;;27.83;61.95;99654.69;6311036;28;20050;-75
2022/08/23 14:11:51;;;;;;;5.15;4.63;;;;;;;27.90;61.36;99653.66;6320217;28;20082;-73
2022/08/23 14:14:52;;;;;;;7.60;4.88;;;;;;;27.89;61.94;99654.69;6320968;28;20043;-75
2022/08/23 14:17:57;;;;;;;7.10;5.15;;;;;;;28.04;62.12;99653.53;6311589;28;20066;-75
2022/08/23 14:20:58;;;;;;;5.28;4.60;;;;;;;28.18;60.56;99652.41;6316632;28;20040;-75
2022/08/23 14:23:59;;;;;;;5.60;4.60;;;;;;;28.48;60.70;99649.06;6303071;28;20059;-74
2022/08/23 14:27:00;;;;;;;6.07;5.05;;;;;;;28.31;60.32;99656.84;6294608;28;20158;-73
2022/08/23 14:30:03;;;;;;;;;;;;;;;28.77;60.33;99661.00;6278368;28;20056;-73
2022/08/23 14:33:06;;;;;;;11.45;4.70;;;;;;;28.27;61.18;99663.69;6331328;28;20291;-75
2022/08/23 14:36:08;;;;;;;7.43;5.15;;;;;;;28.51;59.52;99665.56;6310135;28;20044;-75
2022/08/23 14:39:09;;;;;;;6.22;4.97;;;;;;;28.54;62.08;99667.00;6302967;28;20056;-74